Time;durP1;ratioP1;P1;durP2;ratioP2;P2;SDS_P1;SDS_P2;PMS_P1;PMS_P2;Temp;Humidity;BMP_temperature;BMP_pressure;BME280_temperature;BME280_humidity;BME280_pressure;Samples;Min_cycle;Max_cycle;Signal;HPM_P1;HPM_P2
2023/12/16 00:00:59;;;;;;;26.30;14.20;;;;;;;4.55;100.00;102416.58;105190;1260;69180;-58
2023/12/16 00:03:38;;;;;;;28.70;14.70;;;;;;;4.56;100.00;102419.17;105138;1256;74674;-57
2023/12/16 00:06:07;;;;;;;31.20;15.20;;;;;;;4.56;100.00;102428.02;105126;1260;81350;-57
2023/12/16 00:08:35;;;;;;;22.10;13.20;;;;;;;4.57;100.00;102431.52;105169;1260;73690;-57
2023/12/16 00:11:03;;;;;;;28.30;15.00;;;;;;;4.57;100.00;102434.63;105157;1256;69198;-57
2023/12/16 00:13:34;;;;;;;26.00;12.40;;;;;;;4.57;100.00;102441.03;105159;1256;69652;-57
2023/12/16 00:16:03;;;;;;;23.80;13.00;;;;;;;4.59;100.00;102443.48;105166;1256;73657;-57
2023/12/16 00:18:31;;;;;;;25.80;12.80;;;;;;;4.59;100.00;102441.06;105198;1257;82931;-57
2023/12/16 00:20:59;;;;;;;24.40;12.90;;;;;;;4.60;100.00;102441.60;105123;1257;72352;-57
2023/12/16 00:23:28;;;;;;;24.80;12.90;;;;;;;4.61;100.00;102446.30;105122;1256;69204;-57
2023/12/16 00:25:56;;;;;;;25.20;12.80;;;;;;;4.63;100.00;102451.02;105125;1260;69923;-58
2023/12/16 00:28:24;;;;;;;20.70;12.80;;;;;;;4.64;100.00;102451.21;105197;1257;73622;-57
2023/12/16 00:30:52;;;;;;;23.60;13.20;;;;;;;4.64;100.00;102450.70;105207;1260;81663;-57
2023/12/16 00:33:21;;;;;;;25.50;12.10;;;;;;;4.66;100.00;102448.84;105117;1256;71843;-57
2023/12/16 00:35:49;;;;;;;24.80;13.00;;;;;;;4.67;100.00;102447.29;105138;1260;69212;-57
2023/12/16 00:38:17;;;;;;;30.10;13.40;;;;;;;4.68;100.00;102445.59;105136;1256;69166;-57
2023/12/16 00:40:45;;;;;;;24.30;12.00;;;;;;;4.69;100.00;102441.10;105177;1257;72293;-57
2023/12/16 00:43:13;;;;;;;24.10;13.10;;;;;;;4.71;100.00;102446.14;105134;1257;81455;-57
2023/12/16 00:45:42;;;;;;;24.10;12.90;;;;;;;4.72;100.00;102445.46;105087;1260;72069;-57
2023/12/16 00:48:10;;;;;;;23.40;13.50;;;;;;;4.72;100.00;102452.07;105126;1260;69130;-57
2023/12/16 00:50:39;;;;;;;23.70;11.70;;;;;;;4.73;100.00;102449.83;105151;1260;69190;-57
2023/12/16 00:53:07;;;;;;;26.40;12.40;;;;;;;4.72;100.00;102449.98;105216;1256;73745;-57
2023/12/16 00:55:35;;;;;;;23.70;11.80;;;;;;;4.72;100.00;102450.33;105145;1260;81749;-57
2023/12/16 00:58:04;;;;;;;25.30;11.50;;;;;;;4.73;100.00;102455.02;105110;1257;71688;-57
2023/12/16 01:00:32;;;;;;;21.20;11.80;;;;;;;4.73;100.00;102457.61;105195;1260;69312;-57
2023/12/16 01:03:00;;;;;;;22.30;12.30;;;;;;;4.74;100.00;102460.58;105143;1260;69229;-58
2023/12/16 01:05:29;;;;;;;31.30;12.40;;;;;;;4.74;100.00;102456.95;105226;1256;74062;-57
2023/12/16 01:07:57;;;;;;;24.80;12.40;;;;;;;4.75;100.00;102456.45;105134;1261;81597;-57
2023/12/16 01:10:25;;;;;;;24.00;12.00;;;;;;;4.76;100.00;102462.52;105146;1257;72009;-58
2023/12/16 01:12:55;;;;;;;22.60;11.60;;;;;;;4.77;100.00;102458.40;105119;1258;69165;-57
2023/12/16 01:15:23;;;;;;;25.80;12.70;;;;;;;4.78;100.00;102454.77;105196;1262;69569;-57
2023/12/16 01:17:51;;;;;;;25.80;11.90;;;;;;;4.79;100.00;102463.10;105266;1256;74031;-57
2023/12/16 01:20:20;;;;;;;22.70;10.90;;;;;;;4.79;100.00;102469.52;105113;1259;82825;-58
2023/12/16 01:22:48;;;;;;;22.80;11.50;;;;;;;4.80;100.00;102470.59;105108;1256;70638;-57
2023/12/16 01:25:16;;;;;;;23.10;12.10;;;;;;;4.81;100.00;102469.55;105112;1261;69125;-57
2023/12/16 01:27:47;;;;;;;26.80;12.10;;;;;;;4.82;100.00;102470.44;105176;1260;69238;-57
2023/12/16 01:30:15;;;;;;;25.90;12.10;;;;;;;4.83;100.00;102473.59;105193;1256;73707;-57
2023/12/16 01:32:43;;;;;;;22.10;11.50;;;;;;;4.83;100.00;102483.46;105124;1260;81501;-57
2023/12/16 01:35:11;;;;;;;22.90;11.20;;;;;;;4.84;100.00;102486.06;105205;1257;71757;-57
2023/12/16 01:37:39;;;;;;;25.30;12.80;;;;;;;4.84;100.00;102480.70;105134;1256;69080;-58
2023/12/16 01:40:09;;;;;;;22.00;11.60;;;;;;;4.84;100.00;102476.20;105169;1261;69177;-57
2023/12/16 01:42:37;;;;;;;21.50;10.50;;;;;;;4.85;100.00;102466.67;105186;1257;73514;-57
2023/12/16 01:45:06;;;;;;;27.30;11.70;;;;;;;4.84;100.00;102470.31;105143;1260;82798;-57
2023/12/16 01:47:34;;;;;;;24.90;11.40;;;;;;;4.85;100.00;102473.97;105148;1261;71212;-57
2023/12/16 01:50:03;;;;;;;22.60;11.80;;;;;;;4.86;100.00;102473.11;105157;1257;69135;-57
2023/12/16 01:52:31;;;;;;;23.00;10.90;;;;;;;4.86;100.00;102480.06;105189;1256;69064;-57
2023/12/16 01:55:00;;;;;;;23.10;11.70;;;;;;;4.85;100.00;102479.35;105152;1257;72250;-57
2023/12/16 01:57:28;;;;;;;25.40;11.40;;;;;;;4.85;100.00;102486.62;105149;1259;81533;-57
2023/12/16 01:59:56;;;;;;;23.70;11.80;;;;;;;4.86;100.00;102490.28;105108;1261;71703;-57
2023/12/16 02:02:25;;;;;;;23.90;12.30;;;;;;;4.86;100.00;102494.43;105105;1256;69185;-57
2023/12/16 02:04:54;;;;;;;25.40;12.60;;;;;;;4.87;100.00;102493.73;105084;1256;69182;-57
2023/12/16 02:07:22;;;;;;;23.50;11.90;;;;;;;4.87;100.00;102500.67;105207;1256;73668;-57
2023/12/16 02:09:50;;;;;;;23.20;11.10;;;;;;;4.87;100.00;102496.02;105179;1257;82458;-57
2023/12/16 02:12:19;;;;;;;22.60;11.20;;;;;;;4.87;100.00;102491.33;105153;1260;71438;-57
2023/12/16 02:14:47;;;;;;;25.70;12.20;;;;;;;4.88;100.00;102489.80;105192;1257;69092;-58
2023/12/16 02:17:15;;;;;;;26.80;10.40;;;;;;;4.88;100.00;102483.40;105154;1261;69148;-57
2023/12/16 02:19:46;;;;;;;24.70;11.80;;;;;;;4.89;100.00;102476.82;105144;1257;72429;-57
2023/12/16 02:22:14;;;;;;;23.70;10.90;;;;;;;4.89;100.00;102474.91;105175;1256;82755;-57
2023/12/16 02:24:42;;;;;;;24.30;11.60;;;;;;;4.90;100.00;102471.46;105122;1256;71637;-57
2023/12/16 02:27:11;;;;;;;23.80;10.90;;;;;;;4.90;100.00;102470.10;105068;1262;69207;-57
2023/12/16 02:29:39;;;;;;;25.10;11.80;;;;;;;4.92;100.00;102472.71;105130;1260;69199;-58
2023/12/16 02:32:08;;;;;;;23.60;11.80;;;;;;;4.93;100.00;102471.69;105200;1257;74954;-57
2023/12/16 02:34:36;;;;;;;23.80;11.90;;;;;;;4.93;100.00;102471.69;105175;1262;81664;-58
2023/12/16 02:37:06;;;;;;;23.30;11.90;;;;;;;4.94;100.00;102474.48;105101;1260;72689;-57
2023/12/16 02:39:35;;;;;;;23.80;11.10;;;;;;;4.95;100.00;102471.73;105148;1256;69173;-57
2023/12/16 02:42:03;;;;;;;21.90;11.40;;;;;;;4.96;100.00;102469.33;105165;1256;69148;-58
2023/12/16 02:44:31;;;;;;;19.00;10.30;;;;;;;4.96;100.00;102469.50;105168;1256;73638;-57
2023/12/16 02:46:59;;;;;;;26.50;12.20;;;;;;;4.96;100.00;102470.37;105066;1257;80391;-57
2023/12/16 02:49:28;;;;;;;24.40;11.80;;;;;;;4.96;100.00;102470.38;105143;1256;71773;-57
2023/12/16 02:51:58;;;;;;;21.70;10.70;;;;;;;4.96;100.00;102469.35;105172;1260;69150;-58
2023/12/16 02:54:27;;;;;;;21.40;9.90;;;;;;;4.96;100.00;102466.90;105191;1256;69200;-57
2023/12/16 02:56:56;;;;;;;24.30;11.50;;;;;;;4.97;100.00;102464.49;105213;1262;74136;-57
2023/12/16 02:59:24;;;;;;;21.80;10.90;;;;;;;4.98;100.00;102467.98;105261;1256;81949;-57
2023/12/16 03:01:52;;;;;;;23.30;11.00;;;;;;;4.99;100.00;102470.61;105187;1257;70759;-57
2023/12/16 03:04:21;;;;;;;20.90;11.20;;;;;;;5.00;100.00;102472.19;105171;1256;69153;-57
2023/12/16 03:06:50;;;;;;;21.50;10.40;;;;;;;5.01;100.00;102468.20;105218;1260;69196;-57
2023/12/16 03:09:18;;;;;;;21.70;10.40;;;;;;;5.02;100.00;102471.35;105209;1260;73815;-56
2023/12/16 03:11:47;;;;;;;20.60;10.60;;;;;;;5.02;100.00;102468.25;105156;1262;81439;-57
2023/12/16 03:14:16;;;;;;;23.40;11.30;;;;;;;5.03;100.00;102472.06;105160;1258;71923;-57
2023/12/16 03:16:44;;;;;;;22.30;10.60;;;;;;;5.04;100.00;102478.14;105205;1257;69208;-56
2023/12/16 03:19:13;;;;;;;22.60;11.20;;;;;;;5.04;100.00;102482.66;105192;1260;69183;-58
2023/12/16 03:21:41;;;;;;;23.20;11.40;;;;;;;5.04;100.00;102485.08;105169;1257;74222;-57
2023/12/16 03:24:09;;;;;;;24.30;11.90;;;;;;;5.05;100.00;102488.56;105092;1260;80615;-57
2023/12/16 03:26:41;;;;;;;24.30;12.00;;;;;;;5.05;100.00;102493.42;105164;1257;71837;-57
2023/12/16 03:29:10;;;;;;;23.40;11.30;;;;;;;5.04;100.00;102496.34;105233;1260;69823;-57
2023/12/16 03:31:38;;;;;;;27.60;12.30;;;;;;;5.04;100.00;102499.63;105136;1260;69124;-57
2023/12/16 03:34:06;;;;;;;23.30;11.00;;;;;;;5.05;100.00;102505.37;105149;1256;74408;-57
2023/12/16 03:36:34;;;;;;;20.10;11.40;;;;;;;5.04;100.00;102507.77;105155;1261;81633;-58
2023/12/16 03:39:04;;;;;;;22.40;12.10;;;;;;;5.04;100.00;102501.38;105125;1257;71908;-57
2023/12/16 03:41:34;;;;;;;21.50;11.50;;;;;;;5.04;100.00;102498.23;105191;1256;69212;-58
2023/12/16 03:44:02;;;;;;;20.80;10.90;;;;;;;5.03;100.00;102496.84;105195;1260;69127;-58
2023/12/16 03:46:30;;;;;;;21.30;11.80;;;;;;;5.02;100.00;102493.70;105161;1256;74145;-56
2023/12/16 03:48:58;;;;;;;19.40;10.30;;;;;;;5.01;100.00;102495.25;105145;1260;81785;-57
2023/12/16 03:51:27;;;;;;;16.50;10.30;;;;;;;5.01;100.00;102495.75;105236;1261;72038;-57
2023/12/16 03:53:55;;;;;;;16.40;10.10;;;;;;;4.99;100.00;102494.36;105122;1256;69172;-57
2023/12/16 03:56:23;;;;;;;20.20;10.70;;;;;;;4.98;100.00;102492.75;105161;1261;69290;-57
2023/12/16 03:58:51;;;;;;;20.80;11.50;;;;;;;4.98;100.00;102493.27;105195;1257;74394;-57
2023/12/16 04:01:19;;;;;;;16.50;11.00;;;;;;;4.97;100.00;102493.61;105138;1257;80420;-57
2023/12/16 04:03:48;;;;;;;15.70;9.60;;;;;;;4.96;100.00;102495.16;105171;1257;72187;-56
2023/12/16 04:06:16;;;;;;;22.50;10.00;;;;;;;4.96;100.00;102491.66;105143;1256;69130;-57
2023/12/16 04:08:44;;;;;;;15.90;10.10;;;;;;;4.95;100.00;102490.79;105120;1261;69193;-57
2023/12/16 04:11:12;;;;;;;21.50;10.20;;;;;;;4.95;100.00;102493.21;105165;1256;73680;-57
2023/12/16 04:13:40;;;;;;;23.10;10.20;;;;;;;4.94;100.00;102496.67;105176;1260;82767;-57
2023/12/16 04:16:09;;;;;;;17.10;9.80;;;;;;;4.93;100.00;102498.38;105117;1256;70829;-57
2023/12/16 04:18:37;;;;;;;20.30;9.90;;;;;;;4.94;100.00;102497.36;105172;1260;69131;-57
2023/12/16 04:21:05;;;;;;;20.10;10.30;;;;;;;4.94;100.00;102506.04;105126;1257;69212;-57
2023/12/16 04:23:34;;;;;;;19.70;10.80;;;;;;;4.95;100.00;102508.80;105147;1260;75144;-57
2023/12/16 04:26:02;;;;;;;24.50;11.20;;;;;;;4.96;100.00;102510.04;105154;1260;81443;-57
2023/12/16 04:28:35;;;;;;;23.60;12.00;;;;;;;4.97;100.00;102515.10;105097;1257;71777;-57
2023/12/16 04:31:03;;;;;;;21.90;11.10;;;;;;;4.98;100.00;102520.65;105096;1257;69200;-56
2023/12/16 04:33:31;;;;;;;18.40;10.40;;;;;;;4.99;100.00;102523.61;105175;1262;69209;-57
2023/12/16 04:36:00;;;;;;;24.50;12.10;;;;;;;4.99;100.00;102531.77;105095;1257;74541;-57
2023/12/16 04:38:28;;;;;;;19.90;11.10;;;;;;;5.00;100.00;102541.14;105128;1261;81622;-57
2023/12/16 04:40:56;;;;;;;24.10;10.90;;;;;;;5.00;100.00;102541.16;105205;1261;71679;-57
2023/12/16 04:43:24;;;;;;;21.80;10.60;;;;;;;5.01;100.00;102536.81;105095;1262;69086;-58
2023/12/16 04:45:52;;;;;;;21.60;10.80;;;;;;;5.02;100.00;102532.86;105159;1262;69121;-57
2023/12/16 04:48:20;;;;;;;20.10;10.00;;;;;;;5.02;100.00;102530.61;105144;1260;73546;-57
2023/12/16 04:50:48;;;;;;;19.50;10.70;;;;;;;5.02;100.00;102532.34;105122;1261;81700;-57
2023/12/16 04:53:17;;;;;;;19.30;10.70;;;;;;;5.02;100.00;102527.67;105155;1256;72045;-57
2023/12/16 04:55:45;;;;;;;25.90;11.80;;;;;;;5.02;100.00;102530.98;105118;1257;69103;-57
2023/12/16 04:58:14;;;;;;;23.10;10.60;;;;;;;5.02;100.00;102532.36;105202;1262;69284;-57
2023/12/16 05:00:43;;;;;;;22.50;10.30;;;;;;;5.03;100.00;102532.88;105202;1256;73850;-57
2023/12/16 05:03:12;;;;;;;21.70;10.70;;;;;;;5.04;100.00;102532.38;105155;1262;82604;-57
2023/12/16 05:05:40;;;;;;;17.30;9.50;;;;;;;5.04;100.00;102536.38;105115;1257;72877;-57
2023/12/16 05:08:09;;;;;;;22.60;10.60;;;;;;;5.06;100.00;102538.84;105181;1262;69209;-57
2023/12/16 05:10:37;;;;;;;24.70;11.70;;;;;;;5.08;100.00;102535.05;105175;1261;69160;-57
2023/12/16 05:13:09;;;;;;;21.10;11.40;;;;;;;5.10;100.00;102532.50;105165;1256;73945;-57
2023/12/16 05:15:38;;;;;;;19.50;9.80;;;;;;;5.11;100.00;102531.66;105177;1257;81483;-57
2023/12/16 05:18:07;;;;;;;22.50;11.40;;;;;;;5.11;100.00;102534.96;105229;1262;72330;-57
2023/12/16 05:20:35;;;;;;;22.20;10.80;;;;;;;5.13;100.00;102537.25;105183;1262;69126;-57
2023/12/16 05:23:03;;;;;;;22.20;10.80;;;;;;;5.13;100.00;102544.71;105202;1261;69139;-57
2023/12/16 05:25:31;;;;;;;20.20;10.50;;;;;;;5.14;100.00;102545.41;105167;1257;73564;-57
2023/12/16 05:28:00;;;;;;;21.90;11.40;;;;;;;5.16;100.00;102544.41;105155;1262;81728;-57
2023/12/16 05:30:28;;;;;;;19.90;11.00;;;;;;;5.17;100.00;102538.70;105119;1261;71818;-57
2023/12/16 05:32:57;;;;;;;22.50;11.50;;;;;;;5.16;100.00;102536.61;105075;1256;69158;-57
2023/12/16 05:35:25;;;;;;;20.30;10.50;;;;;;;5.18;100.00;102538.18;105194;1256;69181;-57
2023/12/16 05:37:54;;;;;;;18.90;10.80;;;;;;;5.18;100.00;102543.91;105173;1260;74353;-57
2023/12/16 05:40:22;;;;;;;22.40;10.90;;;;;;;5.19;100.00;102547.59;105088;1260;81817;-57
2023/12/16 05:42:50;;;;;;;19.10;10.60;;;;;;;5.20;100.00;102550.54;105129;1257;72715;-57
2023/12/16 05:45:18;;;;;;;24.60;11.20;;;;;;;5.20;100.00;102553.84;105117;1256;69185;-58
2023/12/16 05:47:46;;;;;;;20.60;10.10;;;;;;;5.21;100.00;102550.90;105085;1262;69286;-58
2023/12/16 05:50:14;;;;;;;18.50;10.50;;;;;;;5.22;100.00;102555.95;105103;1261;73859;-58
2023/12/16 05:52:43;;;;;;;19.40;10.80;;;;;;;5.21;100.00;102555.06;105103;1260;81349;-58
2023/12/16 05:55:11;;;;;;;21.90;11.40;;;;;;;5.20;100.00;102555.23;105209;1261;71328;-58
2023/12/16 05:57:39;;;;;;;21.70;11.10;;;;;;;5.18;100.00;102559.86;105158;1262;69165;-58
2023/12/16 06:00:08;;;;;;;19.20;10.40;;;;;;;5.18;100.00;102556.20;105164;1260;69128;-58
2023/12/16 06:02:37;;;;;;;19.20;10.00;;;;;;;5.17;100.00;102559.50;105212;1261;72483;-58
2023/12/16 06:05:06;;;;;;;22.00;10.10;;;;;;;5.17;100.00;102556.55;105159;1261;81272;-58
2023/12/16 06:07:34;;;;;;;16.00;9.90;;;;;;;5.16;100.00;102558.11;105160;1262;73042;-58
2023/12/16 06:10:04;;;;;;;16.50;10.20;;;;;;;5.16;100.00;102557.23;105087;1261;69077;-58
2023/12/16 06:12:35;;;;;;;13.90;9.20;;;;;;;5.16;100.00;102559.31;105224;1258;69180;-58
2023/12/16 06:15:04;;;;;;;17.70;10.30;;;;;;;5.17;100.00;102563.48;105161;1256;72368;-58
2023/12/16 06:17:32;;;;;;;21.70;10.30;;;;;;;5.17;100.00;102563.15;105248;1262;80746;-58
2023/12/16 06:20:00;;;;;;;16.70;10.40;;;;;;;5.18;100.00;102558.48;105160;1256;72064;-58
2023/12/16 06:22:28;;;;;;;18.90;10.70;;;;;;;5.18;100.00;102551.36;105201;1262;69179;-58
2023/12/16 06:24:58;;;;;;;23.60;11.90;;;;;;;5.18;100.00;102543.92;105139;1261;69142;-58
2023/12/16 06:27:26;;;;;;;20.60;11.80;;;;;;;5.18;100.00;102545.13;105199;1261;74095;-58
2023/12/16 06:29:54;;;;;;;18.10;10.60;;;;;;;5.18;100.00;102545.48;105122;1261;82707;-58
2023/12/16 06:32:22;;;;;;;23.30;11.50;;;;;;;5.18;100.00;102550.69;105096;1261;71009;-57
2023/12/16 06:34:51;;;;;;;23.20;11.60;;;;;;;5.18;100.00;102552.25;105178;1260;69149;-58
2023/12/16 06:37:19;;;;;;;20.00;10.90;;;;;;;5.19;100.00;102551.76;105117;1262;69777;-58
2023/12/16 06:39:47;;;;;;;25.10;12.30;;;;;;;5.21;100.00;102559.05;105134;1257;74951;-57
2023/12/16 06:42:15;;;;;;;20.80;11.30;;;;;;;5.21;100.00;102560.97;105241;1260;81722;-58
2023/12/16 06:44:43;;;;;;;23.00;11.80;;;;;;;5.23;100.00;102567.42;105117;1258;71446;-57
2023/12/16 06:47:12;;;;;;;22.70;11.70;;;;;;;5.24;100.00;102566.75;105142;1257;69116;-57
2023/12/16 06:49:40;;;;;;;19.50;12.10;;;;;;;5.25;100.00;102568.85;105163;1257;69184;-57
2023/12/16 06:52:08;;;;;;;24.90;13.20;;;;;;;5.26;100.00;102570.77;105103;1260;73439;-57
2023/12/16 06:54:36;;;;;;;24.10;13.40;;;;;;;5.26;100.00;102574.07;105109;1260;83413;-58
2023/12/16 06:57:04;;;;;;;23.70;13.30;;;;;;;5.27;100.00;102578.09;105106;1263;71812;-58
2023/12/16 06:59:33;;;;;;;23.10;13.20;;;;;;;5.28;100.00;102580.17;105168;1260;69128;-58
2023/12/16 07:02:01;;;;;;;31.30;13.60;;;;;;;5.29;100.00;102582.10;105188;1265;69205;-58
2023/12/16 07:04:29;;;;;;;29.90;14.40;;;;;;;5.28;100.00;102581.22;105206;1258;73622;-58
2023/12/16 07:06:57;;;;;;;21.80;13.70;;;;;;;5.29;100.00;102576.38;105118;1262;82720;-58
2023/12/16 07:09:26;;;;;;;26.50;13.60;;;;;;;5.29;100.00;102572.73;105141;1257;73052;-58
2023/12/16 07:11:54;;;;;;;34.00;18.00;;;;;;;5.29;100.00;102574.30;105115;1261;69084;-58
2023/12/16 07:14:22;;;;;;;37.60;17.60;;;;;;;5.30;100.00;102580.58;105108;1261;69183;-58
2023/12/16 07:16:50;;;;;;;29.30;18.30;;;;;;;5.31;100.00;102581.97;105094;1262;73902;-58
2023/12/16 07:19:22;;;;;;;33.00;18.80;;;;;;;5.32;100.00;102592.04;105148;1257;82206;-58
2023/12/16 07:21:50;;;;;;;35.30;19.00;;;;;;;5.34;100.00;102587.56;105146;1263;71633;-58
2023/12/16 07:24:19;;;;;;;38.90;20.80;;;;;;;5.34;100.00;102588.80;105134;1263;69188;-58
2023/12/16 07:26:47;;;;;;;34.20;19.40;;;;;;;5.36;100.00;102589.17;105143;1260;69201;-58
2023/12/16 07:29:16;;;;;;;30.70;17.60;;;;;;;5.38;100.00;102587.82;105116;1260;72200;-59
2023/12/16 07:31:48;;;;;;;30.20;16.30;;;;;;;5.40;100.00;102592.88;105180;1263;80159;-58
2023/12/16 07:34:17;;;;;;;26.60;14.40;;;;;;;5.41;100.00;102591.02;105138;1257;71611;-58
2023/12/16 07:36:45;;;;;;;34.20;16.50;;;;;;;5.43;100.00;102594.84;105181;1259;69165;-59
2023/12/16 07:39:14;;;;;;;25.80;13.40;;;;;;;5.45;100.00;102599.39;105195;1263;69142;-58
2023/12/16 07:41:42;;;;;;;31.20;15.80;;;;;;;5.46;100.00;102606.02;105134;1260;73705;-58
2023/12/16 07:44:11;;;;;;;26.30;14.80;;;;;;;5.47;100.00;102610.71;105105;1260;82129;-59
2023/12/16 07:46:40;;;;;;;30.50;16.20;;;;;;;5.48;100.00;102610.21;105206;1260;71811;-58
2023/12/16 07:49:08;;;;;;;32.10;15.70;;;;;;;5.49;100.00;102608.86;105150;1261;69141;-58
2023/12/16 07:51:37;;;;;;;31.70;16.10;;;;;;;5.51;100.00;102610.27;105172;1261;69205;-59
2023/12/16 07:54:05;;;;;;;31.60;16.20;;;;;;;5.52;100.00;102615.16;105093;1261;74008;-58
2023/12/16 07:56:33;;;;;;;29.60;16.90;;;;;;;5.54;100.00;102616.56;105118;1262;81781;-59
2023/12/16 07:59:01;;;;;;;31.10;16.60;;;;;;;5.55;100.00;102614.34;105146;1257;70327;-58
2023/12/16 08:01:30;;;;;;;33.30;16.40;;;;;;;5.57;100.00;102615.23;105134;1260;69192;-59
2023/12/16 08:03:58;;;;;;;28.60;15.70;;;;;;;5.58;100.00;102614.40;105181;1260;69147;-58
2023/12/16 08:06:27;;;;;;;29.70;15.10;;;;;;;5.60;100.00;102615.46;105169;1262;73712;-58
2023/12/16 08:08:58;;;;;;;35.00;17.10;;;;;;;5.61;100.00;102614.61;105167;1260;82681;-58
2023/12/16 08:11:26;;;;;;;33.10;16.80;;;;;;;5.62;100.00;102619.33;105127;1263;72121;-58
2023/12/16 08:13:54;;;;;;;32.50;16.60;;;;;;;5.65;100.00;102619.55;105059;1263;69185;-58
2023/12/16 08:16:22;;;;;;;31.40;16.30;;;;;;;5.66;100.00;102617.51;105126;1262;69169;-58
2023/12/16 08:18:51;;;;;;;35.50;18.00;;;;;;;5.68;100.00;102615.62;105159;1263;73524;-59
2023/12/16 08:21:20;;;;;;;33.40;15.90;;;;;;;5.69;100.00;102614.79;105140;1260;82792;-59
2023/12/16 08:23:49;;;;;;;31.30;16.70;;;;;;;5.70;100.00;102620.33;105106;1262;72145;-59
2023/12/16 08:26:17;;;;;;;28.20;15.80;;;;;;;5.71;100.00;102621.91;105075;1262;69137;-59
2023/12/16 08:28:45;;;;;;;28.80;15.90;;;;;;;5.71;100.00;102629.92;105121;1260;69211;-59
2023/12/16 08:31:13;;;;;;;33.60;15.80;;;;;;;5.71;100.00;102629.55;105178;1260;73432;-58
2023/12/16 08:33:42;;;;;;;28.40;14.90;;;;;;;5.71;100.00;102628.51;105158;1262;82933;-58
2023/12/16 08:36:10;;;;;;;28.10;15.40;;;;;;;5.71;100.00;102629.73;105105;1270;71735;-58
2023/12/16 08:38:39;;;;;;;28.70;14.70;;;;;;;5.72;100.00;102627.66;105129;1262;69221;-58
2023/12/16 08:41:10;;;;;;;33.10;15.70;;;;;;;5.71;100.00;102629.90;105227;1263;69167;-59
2023/12/16 08:43:39;;;;;;;30.50;15.50;;;;;;;5.70;100.00;102630.94;105181;1258;73911;-59
2023/12/16 08:46:07;;;;;;;31.50;16.40;;;;;;;5.71;100.00;102630.08;105108;1260;82985;-58
2023/12/16 08:48:35;;;;;;;28.30;14.30;;;;;;;5.72;100.00;102637.55;105214;1263;70404;-58
2023/12/16 08:51:04;;;;;;;26.60;14.00;;;;;;;5.72;100.00;102634.61;105204;1257;69086;-58
2023/12/16 08:53:32;;;;;;;28.50;14.10;;;;;;;5.73;100.00;102634.09;105163;1260;69057;-58
2023/12/16 08:56:00;;;;;;;29.80;14.60;;;;;;;5.73;100.00;102636.89;105128;1260;72234;-58
2023/12/16 08:58:29;;;;;;;29.20;13.90;;;;;;;5.75;100.00;102631.02;105149;1260;81387;-58
2023/12/16 09:00:58;;;;;;;26.10;13.30;;;;;;;5.77;100.00;102632.80;105117;1263;71727;-58
2023/12/16 09:03:26;;;;;;;28.40;13.40;;;;;;;5.80;100.00;102638.41;105147;1270;69173;-58
2023/12/16 09:05:56;;;;;;;29.60;13.40;;;;;;;5.83;100.00;102633.59;105126;1260;69192;-58
2023/12/16 09:08:24;;;;;;;23.10;12.70;;;;;;;5.87;100.00;102634.20;105118;1260;75095;-58
2023/12/16 09:10:52;;;;;;;23.90;12.30;;;;;;;5.93;100.00;102629.27;105129;1262;82528;-58
2023/12/16 09:13:20;;;;;;;28.60;12.80;;;;;;;5.99;100.00;102630.98;105168;1262;72979;-59
2023/12/16 09:15:48;;;;;;;25.40;13.20;;;;;;;6.06;100.00;102629.86;105085;1260;69122;-58
2023/12/16 09:18:17;;;;;;;26.50;12.50;;;;;;;6.14;100.00;102629.50;105146;1270;69177;-58
2023/12/16 09:20:45;;;;;;;22.70;11.70;;;;;;;6.23;100.00;102626.52;105149;1258;73660;-58
2023/12/16 09:23:13;;;;;;;29.90;14.00;;;;;;;6.32;100.00;102627.35;105152;1263;81438;-58
2023/12/16 09:25:41;;;;;;;23.80;11.90;;;;;;;6.40;100.00;102625.39;105131;1260;70731;-58
2023/12/16 09:28:10;;;;;;;22.10;11.90;;;;;;;6.47;100.00;102627.95;105144;1257;69174;-58
2023/12/16 09:30:38;;;;;;;22.50;12.20;;;;;;;6.53;100.00;102628.91;105240;1262;69213;-58
2023/12/16 09:33:06;;;;;;;24.90;11.60;;;;;;;6.61;100.00;102625.38;105151;1261;74221;-58
2023/12/16 09:35:35;;;;;;;27.70;11.50;;;;;;;6.71;100.00;102624.84;105145;1260;81718;-58
2023/12/16 09:38:03;;;;;;;25.20;11.90;;;;;;;6.77;100.00;102627.00;105130;1270;70262;-58
2023/12/16 09:40:31;;;;;;;26.80;11.70;;;;;;;6.79;100.00;102625.98;105199;1257;69084;-58
2023/12/16 09:43:13;;;;;;;21.60;11.40;;;;;;;6.78;100.00;102625.98;105147;1260;69107;-58
2023/12/16 09:45:46;;;;;;;23.60;10.90;;;;;;;6.77;100.00;102626.31;105189;1260;74082;-58
2023/12/16 09:48:19;;;;;;;22.20;10.20;;;;;;;6.76;100.00;102626.83;105125;1260;81604;-58
2023/12/16 09:50:47;;;;;;;21.40;10.80;;;;;;;6.78;100.00;102630.14;105104;1264;72167;-58
2023/12/16 09:53:16;;;;;;;20.00;10.30;;;;;;;6.77;100.00;102635.34;105072;1261;69224;-58
2023/12/16 09:55:44;;;;;;;23.80;10.90;;;;;;;6.76;100.00;102637.42;105175;1261;69161;-58
2023/12/16 09:58:15;;;;;;;21.20;11.00;;;;;;;6.77;100.00;102633.09;105189;1260;73020;-58
2023/12/16 10:00:46;;;;;;;23.10;10.40;;;;;;;6.79;100.00;102620.27;105141;1261;81280;-58
2023/12/16 10:03:16;;;;;;;17.40;9.60;;;;;;;6.78;100.00;102626.66;105170;1262;70652;-58
2023/12/16 10:05:45;;;;;;;;;;;;;;;6.77;100.00;102622.31;105204;1262;69201;-57
2023/12/16 10:08:14;;;;;;;19.50;9.30;;;;;;;6.77;100.00;102625.27;105204;1261;69186;-57
2023/12/16 10:10:42;;;;;;;21.60;9.70;;;;;;;6.78;100.00;102623.70;105253;1258;73660;-57
2023/12/16 10:13:21;;;;;;;18.70;9.30;;;;;;;6.78;100.00;102622.85;105118;1260;81557;-57
2023/12/16 10:15:50;;;;;;;19.00;8.80;;;;;;;6.77;100.00;102618.14;105202;1260;71816;-58
2023/12/16 10:18:18;;;;;;;20.30;9.40;;;;;;;6.78;100.00;102614.49;105156;1261;69178;-58
2023/12/16 10:20:47;;;;;;;15.40;8.40;;;;;;;6.77;100.00;102609.27;105157;1260;69212;-57
2023/12/16 10:23:15;;;;;;;19.00;9.70;;;;;;;6.75;100.00;102602.98;105199;1260;73995;-57
2023/12/16 10:25:43;;;;;;;21.90;9.30;;;;;;;6.75;100.00;102605.77;105212;1260;81678;-58
2023/12/16 10:28:12;;;;;;;20.40;9.00;;;;;;;6.75;100.00;102606.64;105105;1261;70632;-57
2023/12/16 10:30:42;;;;;;;21.30;9.30;;;;;;;6.75;100.00;102607.34;105217;1260;69162;-58
2023/12/16 10:33:11;;;;;;;18.80;8.20;;;;;;;6.79;100.00;102606.52;105183;1261;69119;-57
2023/12/16 10:35:42;;;;;;;14.40;7.40;;;;;;;6.86;100.00;102606.28;105175;1260;74168;-58
2023/12/16 10:38:12;;;;;;;18.90;6.90;;;;;;;6.95;100.00;102603.61;105185;1261;83598;-57
2023/12/16 10:40:41;;;;;;;13.30;6.40;;;;;;;7.09;100.00;102597.71;105077;1260;70753;-57
2023/12/16 10:43:10;;;;;;;15.20;6.90;;;;;;;7.35;100.00;102597.67;105195;1263;69087;-57
2023/12/16 10:45:39;;;;;;;16.30;6.90;;;;;;;7.56;100.00;102600.34;105218;1260;69147;-58
2023/12/16 10:48:10;;;;;;;13.50;6.60;;;;;;;7.78;100.00;102600.05;105171;1260;72563;-58
2023/12/16 10:50:43;;;;;;;13.60;5.80;;;;;;;7.98;100.00;102600.40;105182;1257;81647;-58
2023/12/16 10:53:24;;;;;;;13.60;6.90;;;;;;;8.03;100.00;102600.80;105192;1258;70581;-58
2023/12/16 10:55:53;;;;;;;;;;;;;;;8.17;100.00;102596.22;104933;1257;199241;-57
2023/12/16 10:58:27;;;;;;;14.60;6.50;;;;;;;8.33;100.00;102595.80;105208;1261;69150;-57
2023/12/16 11:01:10;;;;;;;17.10;6.70;;;;;;;8.50;100.00;102597.17;105164;1258;73411;-57
2023/12/16 11:03:50;;;;;;;13.40;6.10;;;;;;;8.68;100.00;102594.52;105178;1258;81465;-57
2023/12/16 11:06:30;;;;;;;18.70;6.60;;;;;;;8.64;100.00;102583.50;105144;1258;72852;-57
2023/12/16 11:08:59;;;;;;;20.80;8.20;;;;;;;8.75;100.00;102578.52;105187;1264;69137;-57